createdAt,value
2018-06-16T00:00:14.476Z,4.00
2018-06-16T00:01:14.481Z,4.00
2018-06-16T00:02:14.481Z,4.00
2018-06-16T00:03:14.487Z,4.00
2018-06-16T00:04:14.492Z,4.00
2018-06-16T00:05:14.499Z,4.00
2018-06-16T00:06:14.495Z,4.00
2018-06-16T00:07:14.501Z,4.00
2018-06-16T00:08:14.511Z,4.00
2018-06-16T00:09:14.500Z,4.00
2018-06-16T00:10:14.505Z,4.00
2018-06-16T00:11:14.548Z,4.00
2018-06-16T00:12:14.509Z,4.00
2018-06-16T00:13:14.512Z,4.00
2018-06-16T00:14:14.515Z,4.00
2018-06-16T00:15:14.519Z,8.00
2018-06-16T00:16:14.534Z,4.00
2018-06-16T00:17:14.532Z,4.00
2018-06-16T00:18:14.527Z,4.00
2018-06-16T00:19:14.530Z,4.00
2018-06-16T00:20:14.540Z,4.00
2018-06-16T00:21:14.539Z,4.00
2018-06-16T00:22:14.544Z,4.00
2018-06-16T00:23:14.542Z,8.00
2018-06-16T00:24:14.543Z,4.00
2018-06-16T00:25:14.548Z,4.00
2018-06-16T00:26:14.551Z,4.00
2018-06-16T00:27:14.554Z,4.00
2018-06-16T00:28:14.561Z,4.00
2018-06-16T00:29:14.569Z,4.00
2018-06-16T00:30:14.561Z,4.00
2018-06-16T00:31:14.565Z,4.00
2018-06-16T00:32:14.569Z,4.00
2018-06-16T00:33:14.569Z,4.00
2018-06-16T00:34:14.571Z,8.00
2018-06-16T00:35:14.574Z,4.00
2018-06-16T00:36:14.826Z,8.00
2018-06-16T00:37:14.598Z,4.00
2018-06-16T00:38:14.584Z,4.00
2018-06-16T00:39:15.135Z,4.00
2018-06-16T00:40:14.587Z,4.00
2018-06-16T00:41:14.619Z,4.00
2018-06-16T00:42:14.598Z,4.00
2018-06-16T00:43:14.604Z,4.00
2018-06-16T00:44:14.605Z,4.00
2018-06-16T00:45:14.601Z,4.00
2018-06-16T00:46:14.604Z,4.00
2018-06-16T00:47:14.606Z,4.00
2018-06-16T00:48:14.609Z,4.00
2018-06-16T00:49:14.621Z,4.00
2018-06-16T00:50:14.622Z,4.00
2018-06-16T00:51:14.618Z,4.00
2018-06-16T00:52:14.638Z,4.00
2018-06-16T00:53:14.625Z,4.00
2018-06-16T00:54:14.629Z,4.00
2018-06-16T00:55:14.631Z,4.00
2018-06-16T00:56:14.633Z,4.00
2018-06-16T00:57:14.633Z,4.00
2018-06-16T00:58:14.642Z,4.00
2018-06-16T00:59:14.654Z,4.00
2018-06-16T01:00:14.645Z,4.00
2018-06-16T01:01:14.651Z,4.00
2018-06-16T01:02:14.648Z,4.00
2018-06-16T01:03:14.651Z,4.00
2018-06-16T01:04:14.654Z,4.00
2018-06-16T01:05:14.659Z,4.00
2018-06-16T01:06:14.658Z,4.00
2018-06-16T01:07:14.665Z,4.00
2018-06-16T01:08:14.665Z,4.00
2018-06-16T01:09:14.667Z,4.00
2018-06-16T01:10:14.675Z,4.00
2018-06-16T01:11:14.675Z,4.00
2018-06-16T01:12:14.678Z,4.00
2018-06-16T01:13:14.681Z,4.00
2018-06-16T01:14:14.686Z,4.00
2018-06-16T01:15:14.683Z,4.00
2018-06-16T01:16:14.707Z,4.00
2018-06-16T01:17:14.697Z,4.00
2018-06-16T01:18:14.696Z,4.00
2018-06-16T01:19:14.913Z,4.00
2018-06-16T01:20:14.696Z,8.00
2018-06-16T01:21:14.700Z,4.00
2018-06-16T01:22:15.214Z,4.00
2018-06-16T01:23:14.707Z,4.00
2018-06-16T01:24:14.740Z,4.00
2018-06-16T01:25:14.756Z,4.00
2018-06-16T01:26:14.712Z,4.00
2018-06-16T01:27:14.724Z,4.00
2018-06-16T01:28:14.721Z,8.00
2018-06-16T01:29:14.720Z,8.00
2018-06-16T01:30:14.724Z,4.00
2018-06-16T01:31:14.725Z,4.00
2018-06-16T01:32:14.782Z,4.00
2018-06-16T01:33:14.731Z,4.00
2018-06-16T01:34:14.736Z,4.00
2018-06-16T01:35:14.740Z,4.00
2018-06-16T01:36:14.738Z,4.00
2018-06-16T01:37:14.797Z,4.00
2018-06-16T01:38:14.746Z,4.00
2018-06-16T01:39:14.749Z,4.00
2018-06-16T01:40:14.748Z,4.00
2018-06-16T01:41:14.759Z,4.00
2018-06-16T01:42:14.755Z,4.00
2018-06-16T01:43:14.758Z,4.00
2018-06-16T01:44:14.759Z,8.00
2018-06-16T01:45:14.764Z,4.00
2018-06-16T01:46:14.765Z,4.00
2018-06-16T01:47:14.772Z,4.00
2018-06-16T01:48:14.772Z,4.00
2018-06-16T01:49:14.773Z,4.00
2018-06-16T01:50:14.775Z,4.00
2018-06-16T01:51:14.814Z,4.00
2018-06-16T01:52:14.795Z,8.00
2018-06-16T01:53:14.783Z,8.00
2018-06-16T01:54:14.786Z,4.00
2018-06-16T01:55:14.797Z,4.00
2018-06-16T01:56:14.798Z,4.00
2018-06-16T01:57:14.795Z,8.00
2018-06-16T01:58:14.797Z,4.00
2018-06-16T01:59:14.801Z,8.00
2018-06-16T02:00:14.806Z,8.00
2018-06-16T02:01:14.807Z,4.00
2018-06-16T02:02:14.806Z,4.00
2018-06-16T02:03:14.813Z,4.00
2018-06-16T02:04:14.811Z,4.00
2018-06-16T02:05:14.815Z,4.00
2018-06-16T02:06:14.817Z,4.00
2018-06-16T02:07:14.822Z,8.00
2018-06-16T02:08:14.825Z,4.00
2018-06-16T02:09:14.832Z,8.00
2018-06-16T02:10:14.830Z,8.00
2018-06-16T02:11:14.830Z,8.00
2018-06-16T02:12:14.835Z,8.00
2018-06-16T02:13:14.838Z,8.00
2018-06-16T02:14:14.837Z,8.00
2018-06-16T02:15:14.847Z,8.00
2018-06-16T02:16:14.842Z,8.00
2018-06-16T02:17:15.693Z,8.00
2018-06-16T02:18:17.187Z,8.00
2018-06-16T02:19:17.765Z,8.00
2018-06-16T02:20:15.676Z,8.00
2018-06-16T02:21:15.724Z,8.00
2018-06-16T02:22:15.720Z,8.00
2018-06-16T02:23:15.715Z,8.00
2018-06-16T02:24:15.994Z,8.00
2018-06-16T02:25:15.748Z,8.00
2018-06-16T02:26:14.921Z,8.00
2018-06-16T02:27:15.928Z,8.00
2018-06-16T02:28:16.714Z,8.00
2018-06-16T02:29:15.680Z,8.00
2018-06-16T02:30:15.705Z,8.00
2018-06-16T02:31:15.719Z,4.00
2018-06-16T02:32:15.108Z,4.00
2018-06-16T02:33:15.671Z,4.00
2018-06-16T02:34:14.887Z,8.00
2018-06-16T02:35:14.891Z,8.00
2018-06-16T02:36:14.892Z,8.00
2018-06-16T02:37:14.897Z,8.00
2018-06-16T02:38:14.898Z,8.00
2018-06-16T02:39:14.900Z,8.00
2018-06-16T02:40:14.908Z,8.00
2018-06-16T02:41:14.907Z,8.00
2018-06-16T02:42:14.909Z,8.00
2018-06-16T02:43:14.913Z,12.00
2018-06-16T02:44:14.919Z,8.00
2018-06-16T02:45:14.921Z,8.00
2018-06-16T02:46:14.954Z,12.00
2018-06-16T02:47:14.920Z,8.00
2018-06-16T02:48:14.921Z,12.00
2018-06-16T02:49:14.932Z,12.00
2018-06-16T02:50:14.949Z,8.00
2018-06-16T02:51:14.929Z,8.00
2018-06-16T02:52:14.932Z,8.00
2018-06-16T02:53:14.935Z,12.00
2018-06-16T02:54:14.941Z,8.00
2018-06-16T02:55:14.940Z,12.00
2018-06-16T02:56:14.964Z,12.00
2018-06-16T02:57:14.943Z,16.00
2018-06-16T02:58:14.950Z,12.00
2018-06-16T02:59:14.953Z,16.00
2018-06-16T03:00:14.956Z,20.00
2018-06-16T03:01:14.956Z,16.00
2018-06-16T03:02:14.965Z,20.00
2018-06-16T03:03:15.065Z,20.00
2018-06-16T03:04:14.961Z,20.00
2018-06-16T03:05:14.965Z,20.00
2018-06-16T03:06:14.968Z,24.00
2018-06-16T03:07:14.975Z,24.00
2018-06-16T03:08:14.977Z,28.00
2018-06-16T03:09:14.975Z,28.00
2018-06-16T03:10:14.976Z,28.00
2018-06-16T03:11:14.978Z,32.00
2018-06-16T03:12:14.982Z,36.00
2018-06-16T03:13:14.984Z,36.00
2018-06-16T03:14:14.986Z,36.00
2018-06-16T03:15:15.090Z,40.00
2018-06-16T03:16:14.991Z,44.00
2018-06-16T03:17:14.998Z,44.00
2018-06-16T03:18:36.008Z,48.00
2018-06-16T03:19:15.006Z,48.00
2018-06-16T03:20:15.003Z,52.00
2018-06-16T03:21:15.005Z,52.00
2018-06-16T03:22:15.019Z,52.00
2018-06-16T03:23:15.009Z,56.00
2018-06-16T03:24:15.012Z,56.00
2018-06-16T03:25:15.017Z,60.00
2018-06-16T03:26:15.019Z,64.00
2018-06-16T03:27:15.021Z,64.00
2018-06-16T03:28:15.028Z,68.00
2018-06-16T03:29:15.023Z,68.00
2018-06-16T03:30:15.027Z,72.00
2018-06-16T03:31:15.031Z,76.00
2018-06-16T03:32:15.029Z,76.00
2018-06-16T03:33:15.032Z,84.00
2018-06-16T03:34:15.040Z,88.00
2018-06-16T03:35:15.038Z,88.00
2018-06-16T03:36:15.042Z,96.00
2018-06-16T03:37:15.043Z,96.00
2018-06-16T03:38:15.047Z,96.00
2018-06-16T03:39:15.050Z,104.00
2018-06-16T03:40:15.050Z,108.00
2018-06-16T03:41:15.054Z,112.00
2018-06-16T03:42:15.060Z,112.00
2018-06-16T03:43:15.057Z,120.00
2018-06-16T03:44:15.070Z,120.00
2018-06-16T03:45:15.061Z,120.00
2018-06-16T03:46:15.064Z,120.00
2018-06-16T03:47:15.067Z,128.00
2018-06-16T03:48:15.072Z,128.00
2018-06-16T03:49:15.072Z,136.00
2018-06-16T03:50:15.075Z,136.00
2018-06-16T03:51:15.092Z,140.00
2018-06-16T03:52:15.078Z,144.00
2018-06-16T03:53:15.090Z,144.00
2018-06-16T03:54:15.085Z,152.00
2018-06-16T03:55:15.097Z,152.00
2018-06-16T03:56:15.090Z,160.00
2018-06-16T03:57:15.091Z,164.00
2018-06-16T03:58:15.093Z,172.00
2018-06-16T03:59:15.096Z,180.00
2018-06-16T04:00:15.099Z,184.00
2018-06-16T04:01:15.100Z,192.00
2018-06-16T04:02:15.103Z,196.00
2018-06-16T04:03:15.133Z,204.00
2018-06-16T04:04:15.116Z,204.00
2018-06-16T04:05:15.114Z,204.00
2018-06-16T04:06:15.120Z,212.00
2018-06-16T04:07:15.134Z,216.00
2018-06-16T04:08:15.117Z,220.00
2018-06-16T04:09:15.132Z,220.00
2018-06-16T04:10:15.121Z,220.00
2018-06-16T04:11:15.152Z,224.00
2018-06-16T04:12:15.128Z,232.00
2018-06-16T04:13:15.134Z,232.00
2018-06-16T04:14:15.131Z,240.00
2018-06-16T04:15:15.136Z,244.00
2018-06-16T04:16:15.139Z,248.00
2018-06-16T04:17:15.142Z,256.00
2018-06-16T04:18:15.150Z,260.00
2018-06-16T04:19:15.143Z,264.00
2018-06-16T04:20:15.145Z,268.00
2018-06-16T04:21:15.166Z,272.00
2018-06-16T04:22:15.151Z,280.00
2018-06-16T04:23:15.153Z,288.00
2018-06-16T04:24:15.155Z,292.00
2018-06-16T04:25:15.166Z,300.00
2018-06-16T04:26:15.160Z,308.00
2018-06-16T04:27:15.163Z,312.00
2018-06-16T04:28:15.164Z,320.00
2018-06-16T04:29:15.167Z,332.00
2018-06-16T04:30:15.169Z,336.00
2018-06-16T04:31:15.178Z,344.00
2018-06-16T04:32:15.179Z,344.00
2018-06-16T04:33:15.186Z,348.00
2018-06-16T04:34:15.180Z,352.00
2018-06-16T04:35:15.185Z,356.00
2018-06-16T04:36:15.184Z,360.00
2018-06-16T04:37:15.187Z,364.00
2018-06-16T04:38:15.190Z,368.00
2018-06-16T04:39:15.192Z,372.00
2018-06-16T04:40:15.193Z,376.00
2018-06-16T04:41:15.196Z,388.00
2018-06-16T04:42:15.199Z,396.00
2018-06-16T04:43:15.202Z,404.00
2018-06-16T04:44:15.246Z,416.00
2018-06-16T04:45:15.205Z,424.00
2018-06-16T04:46:15.223Z,440.00
2018-06-16T04:47:15.211Z,452.00
2018-06-16T04:48:15.217Z,468.00
2018-06-16T04:49:15.223Z,488.00
2018-06-16T04:50:15.217Z,496.00
2018-06-16T04:51:15.223Z,504.00
2018-06-16T04:52:15.223Z,508.00
2018-06-16T04:53:15.225Z,512.00
2018-06-16T04:54:15.231Z,520.00
2018-06-16T04:55:15.241Z,528.00
2018-06-16T04:56:15.232Z,536.00
2018-06-16T04:57:15.240Z,544.00
2018-06-16T04:58:15.238Z,556.00
2018-06-16T04:59:15.273Z,568.00
2018-06-16T05:00:15.249Z,584.00
2018-06-16T05:01:15.246Z,604.00
2018-06-16T05:02:15.247Z,612.00
2018-06-16T05:03:15.251Z,624.00
2018-06-16T05:04:15.255Z,632.00
2018-06-16T05:05:15.262Z,652.00
2018-06-16T05:06:15.258Z,664.00
2018-06-16T05:07:15.264Z,676.00
2018-06-16T05:08:15.263Z,696.00
2018-06-16T05:09:15.270Z,704.00
2018-06-16T05:10:15.268Z,716.00
2018-06-16T05:11:15.271Z,720.00
2018-06-16T05:12:15.274Z,728.00
2018-06-16T05:13:15.279Z,732.00
2018-06-16T05:14:15.277Z,732.00
2018-06-16T05:15:15.281Z,736.00
2018-06-16T05:16:15.282Z,744.00
2018-06-16T05:17:15.289Z,760.00
2018-06-16T05:18:15.289Z,772.00
2018-06-16T05:19:15.293Z,792.00
2018-06-16T05:20:15.292Z,800.00
2018-06-16T05:21:15.296Z,804.00
2018-06-16T05:22:15.299Z,808.00
2018-06-16T05:23:15.304Z,820.00
2018-06-16T05:24:15.304Z,832.00
2018-06-16T05:25:15.306Z,840.00
2018-06-16T05:26:15.308Z,852.00
2018-06-16T05:27:15.311Z,860.00
2018-06-16T05:28:15.317Z,872.00
2018-06-16T05:29:15.343Z,888.00
2018-06-16T05:30:15.318Z,892.00
2018-06-16T05:31:15.321Z,892.00
2018-06-16T05:32:15.323Z,896.00
2018-06-16T05:33:15.325Z,900.00
2018-06-16T05:34:15.328Z,904.00
2018-06-16T05:35:15.334Z,916.00
2018-06-16T05:36:15.333Z,932.00
2018-06-16T05:37:15.336Z,952.00
2018-06-16T05:38:15.340Z,972.00
2018-06-16T05:39:15.342Z,984.00
2018-06-16T05:40:15.344Z,992.00
2018-06-16T05:41:15.346Z,1004.00
2018-06-16T05:42:15.351Z,1016.00
2018-06-16T05:43:15.353Z,1032.00
2018-06-16T05:44:15.355Z,1048.00
2018-06-16T05:45:15.356Z,1068.00
2018-06-16T05:46:15.383Z,1096.00
2018-06-16T05:47:15.362Z,1116.00
2018-06-16T05:48:15.365Z,1148.00
2018-06-16T05:49:15.366Z,1168.00
2018-06-16T05:50:15.369Z,1196.00
2018-06-16T05:51:15.375Z,1216.00
2018-06-16T05:52:15.378Z,1236.00
2018-06-16T05:53:15.377Z,1244.00
2018-06-16T05:54:15.379Z,1256.00
2018-06-16T05:55:15.383Z,1264.00
2018-06-16T05:56:15.384Z,1272.00
2018-06-16T05:57:15.390Z,1288.00
2018-06-16T05:58:15.389Z,1312.00
2018-06-16T05:59:15.394Z,1344.00
2018-06-16T06:00:15.395Z,1376.00
2018-06-16T06:01:15.398Z,1388.00
2018-06-16T06:02:15.440Z,1396.00
2018-06-16T06:03:15.403Z,1396.00
2018-06-16T06:04:15.407Z,1388.00
2018-06-16T06:05:15.413Z,1388.00
2018-06-16T06:06:15.413Z,1392.00
2018-06-16T06:07:15.416Z,1408.00
2018-06-16T06:08:15.418Z,1432.00
2018-06-16T06:09:15.420Z,1456.00
2018-06-16T06:10:15.465Z,1484.00
2018-06-16T06:11:15.425Z,1516.00
2018-06-16T06:12:15.427Z,1532.00
2018-06-16T06:13:15.434Z,1548.00
2018-06-16T06:14:15.434Z,1556.00
2018-06-16T06:15:15.437Z,1560.00
2018-06-16T06:16:15.438Z,1560.00
2018-06-16T06:17:15.443Z,1564.00
2018-06-16T06:18:15.445Z,1564.00
2018-06-16T06:19:15.449Z,1564.00
2018-06-16T06:20:15.475Z,1564.00
2018-06-16T06:21:15.455Z,1576.00
2018-06-16T06:22:15.457Z,1596.00
2018-06-16T06:23:15.464Z,1632.00
2018-06-16T06:24:15.461Z,1668.00
2018-06-16T06:25:15.466Z,1696.00
2018-06-16T06:26:15.467Z,1720.00
2018-06-16T06:27:15.470Z,1740.00
2018-06-16T06:28:15.473Z,1764.00
2018-06-16T06:29:15.476Z,1792.00
2018-06-16T06:30:15.485Z,1824.00
2018-06-16T06:31:15.482Z,1856.00
2018-06-16T06:32:15.484Z,1880.00
2018-06-16T06:33:15.491Z,1908.00
2018-06-16T06:34:15.495Z,1932.00
2018-06-16T06:35:15.493Z,1968.00
2018-06-16T06:36:15.495Z,2012.00
2018-06-16T06:37:15.553Z,2048.00
2018-06-16T06:38:15.509Z,2092.00
2018-06-16T06:39:15.507Z,2124.00
2018-06-16T06:40:15.506Z,2176.00
2018-06-16T06:41:15.512Z,2224.00
2018-06-16T06:42:15.513Z,2272.00
2018-06-16T06:43:15.518Z,2324.00
2018-06-16T06:44:15.520Z,2364.00
2018-06-16T06:45:15.522Z,2404.00
2018-06-16T06:46:15.528Z,2448.00
2018-06-16T06:47:15.528Z,2508.00
2018-06-16T06:48:15.531Z,2576.00
2018-06-16T06:49:15.539Z,2660.00
2018-06-16T06:50:15.536Z,2748.00
2018-06-16T06:51:15.541Z,2840.00
2018-06-16T06:52:15.544Z,2880.00
2018-06-16T06:53:15.548Z,2952.00
2018-06-16T06:54:15.552Z,2956.00
2018-06-16T06:55:15.555Z,2960.00
2018-06-16T06:56:15.556Z,2964.00
2018-06-16T06:57:15.561Z,2960.00
2018-06-16T06:58:15.562Z,3004.00
2018-06-16T06:59:15.567Z,3064.00
2018-06-16T07:00:15.574Z,3120.00
2018-06-16T07:01:15.573Z,3168.00
2018-06-16T07:02:15.578Z,3208.00
2018-06-16T07:03:15.580Z,3200.00
2018-06-16T07:04:15.588Z,3196.00
2018-06-16T07:05:15.585Z,3180.00
2018-06-16T07:06:15.593Z,3156.00
2018-06-16T07:07:15.593Z,3144.00
2018-06-16T07:08:15.605Z,3136.00
2018-06-16T07:09:15.601Z,3124.00
2018-06-16T07:10:15.603Z,3124.00
2018-06-16T07:11:15.607Z,3112.00
2018-06-16T07:12:15.614Z,3136.00
2018-06-16T07:13:15.615Z,3148.00
2018-06-16T07:14:15.616Z,3156.00
2018-06-16T07:15:15.621Z,3160.00
2018-06-16T07:16:15.623Z,3156.00
2018-06-16T07:17:15.626Z,3168.00
2018-06-16T07:18:15.630Z,3188.00
2018-06-16T07:19:15.635Z,3196.00
2018-06-16T07:20:15.635Z,3204.00
2018-06-16T07:21:15.682Z,3192.00
2018-06-16T07:22:15.646Z,3172.00
2018-06-16T07:23:15.648Z,3180.00
2018-06-16T07:24:15.651Z,3180.00
2018-06-16T07:25:15.653Z,3192.00
2018-06-16T07:26:15.658Z,3184.00
2018-06-16T07:27:15.663Z,3200.00
2018-06-16T07:28:15.675Z,3236.00
2018-06-16T07:29:15.723Z,3284.00
2018-06-16T07:30:15.674Z,3324.00
2018-06-16T07:31:15.680Z,3352.00
2018-06-16T07:32:15.681Z,3372.00
2018-06-16T07:33:15.684Z,3376.00
2018-06-16T07:34:15.690Z,3416.00
2018-06-16T07:35:15.692Z,3428.00
2018-06-16T07:36:15.773Z,3444.00
2018-06-16T07:37:15.698Z,3428.00
2018-06-16T07:38:15.704Z,3412.00
2018-06-16T07:39:15.710Z,3388.00
2018-06-16T07:40:15.709Z,3380.00
2018-06-16T07:41:15.716Z,3388.00
2018-06-16T07:42:15.718Z,3408.00
2018-06-16T07:43:15.723Z,3432.00
2018-06-16T07:44:15.726Z,3472.00
2018-06-16T07:45:15.728Z,3536.00
2018-06-16T07:46:15.735Z,3596.00
2018-06-16T07:47:15.737Z,3664.00
2018-06-16T07:48:15.740Z,3740.00
2018-06-16T07:49:15.743Z,3820.00
2018-06-16T07:50:15.750Z,3904.00
2018-06-16T07:51:15.760Z,3992.00
2018-06-16T07:52:15.759Z,4068.00
2018-06-16T07:53:15.765Z,4124.00
2018-06-16T07:54:15.765Z,4152.00
2018-06-16T07:55:15.771Z,4164.00
2018-06-16T07:56:15.774Z,4172.00
2018-06-16T07:57:15.777Z,4192.00
2018-06-16T07:58:15.783Z,4228.00
2018-06-16T07:59:15.793Z,4248.00
2018-06-16T08:00:15.788Z,4268.00
2018-06-16T08:01:15.795Z,4296.00
2018-06-16T08:02:15.810Z,4332.00
2018-06-16T08:03:15.805Z,4372.00
2018-06-16T08:04:15.807Z,4396.00
2018-06-16T08:05:15.811Z,4416.00
2018-06-16T08:06:15.818Z,4420.00
2018-06-16T08:07:15.824Z,4412.00
2018-06-16T08:08:15.853Z,4404.00
2018-06-16T08:09:15.843Z,4384.00
2018-06-16T08:10:15.841Z,4340.00
2018-06-16T08:11:15.839Z,4312.00
2018-06-16T08:12:15.842Z,4304.00
2018-06-16T08:13:15.858Z,4348.00
2018-06-16T08:14:15.852Z,4392.00
2018-06-16T08:15:15.856Z,4412.00
2018-06-16T08:16:15.860Z,4428.00
2018-06-16T08:17:15.865Z,4408.00
2018-06-16T08:18:15.871Z,4388.00
2018-06-16T08:19:15.874Z,4372.00
2018-06-16T08:20:15.883Z,4420.00
2018-06-16T08:21:15.900Z,4500.00
2018-06-16T08:22:15.888Z,4548.00
2018-06-16T08:23:15.892Z,4572.00
2018-06-16T08:24:15.899Z,4612.00
2018-06-16T08:25:15.905Z,4652.00
2018-06-16T08:26:15.910Z,4588.00
2018-06-16T08:27:15.915Z,4536.00
2018-06-16T08:28:15.917Z,4700.00
2018-06-16T08:29:15.922Z,4948.00
2018-06-16T08:30:15.926Z,5164.00
2018-06-16T08:31:15.931Z,5368.00
2018-06-16T08:32:15.937Z,5504.00
2018-06-16T08:33:15.942Z,5440.00
2018-06-16T08:34:15.947Z,5952.00
2018-06-16T08:35:15.959Z,5912.00
2018-06-16T08:36:15.956Z,5916.00
2018-06-16T08:37:15.962Z,5704.00
2018-06-16T08:38:15.969Z,5828.00
2018-06-16T08:39:15.973Z,5988.00
2018-06-16T08:40:15.978Z,6168.00
2018-06-16T08:41:15.986Z,6112.00
2018-06-16T08:42:15.990Z,5956.00
2018-06-16T08:43:16.077Z,6016.00
2018-06-16T08:44:16.003Z,6224.00
2018-06-16T08:45:16.006Z,6024.00
2018-06-16T08:46:16.036Z,6080.00
2018-06-16T08:47:16.018Z,6328.00
2018-06-16T08:48:16.023Z,6652.00
2018-06-16T08:49:16.026Z,6664.00
2018-06-16T08:50:16.034Z,6548.00
2018-06-16T08:51:16.059Z,6284.00
2018-06-16T08:52:16.046Z,6032.00
2018-06-16T08:53:16.053Z,5688.00
2018-06-16T08:54:16.059Z,5448.00
2018-06-16T08:55:16.071Z,5264.00
2018-06-16T08:56:16.069Z,5184.00
2018-06-16T08:57:16.076Z,5124.00
2018-06-16T08:58:16.079Z,5064.00
2018-06-16T08:59:16.092Z,5024.00
2018-06-16T09:00:16.109Z,4968.00
2018-06-16T09:01:16.097Z,4920.00
2018-06-16T09:02:16.106Z,4868.00
2018-06-16T09:03:16.110Z,4808.00
2018-06-16T09:04:16.115Z,4756.00
2018-06-16T09:05:16.122Z,4704.00
2018-06-16T09:06:16.128Z,4596.00
2018-06-16T09:07:16.133Z,4564.00
2018-06-16T09:08:16.139Z,4620.00
2018-06-16T09:09:16.157Z,4788.00
2018-06-16T09:10:16.152Z,4904.00
2018-06-16T09:11:16.178Z,4788.00
2018-06-16T09:12:16.163Z,4668.00
2018-06-16T09:13:16.171Z,4924.00
2018-06-16T09:14:16.177Z,4988.00
2018-06-16T09:15:16.183Z,5380.00
2018-06-16T09:16:16.183Z,5524.00
2018-06-16T09:17:16.213Z,5440.00
2018-06-16T09:18:16.208Z,5484.00
2018-06-16T09:19:16.202Z,5704.00
2018-06-16T09:20:16.206Z,6096.00
2018-06-16T09:21:16.220Z,6128.00
2018-06-16T09:22:16.222Z,6064.00
2018-06-16T09:23:16.226Z,6116.00
2018-06-16T09:24:16.231Z,6156.00
2018-06-16T09:25:16.236Z,6180.00
2018-06-16T09:26:16.244Z,6096.00
2018-06-16T09:27:16.249Z,6080.00
2018-06-16T09:28:16.258Z,6172.00
2018-06-16T09:29:16.263Z,6136.00
2018-06-16T09:30:16.265Z,6096.00
2018-06-16T09:31:16.397Z,5916.00
2018-06-16T09:32:16.277Z,5932.00
2018-06-16T09:33:16.284Z,5788.00
2018-06-16T09:34:16.296Z,5664.00
2018-06-16T09:35:16.297Z,5580.00
2018-06-16T09:36:16.325Z,5488.00
2018-06-16T09:37:16.306Z,5420.00
2018-06-16T09:38:16.315Z,5496.00
2018-06-16T09:39:16.319Z,5580.00
2018-06-16T09:40:16.324Z,5656.00
2018-06-16T09:41:16.329Z,5696.00
2018-06-16T09:42:16.336Z,5804.00
2018-06-16T09:43:16.350Z,5692.00
2018-06-16T09:44:16.370Z,5812.00
2018-06-16T09:45:16.354Z,5812.00
2018-06-16T09:46:16.366Z,5952.00
2018-06-16T09:47:16.369Z,6068.00
2018-06-16T09:48:16.419Z,6168.00
2018-06-16T09:49:16.383Z,6156.00
2018-06-16T09:50:16.385Z,6132.00
2018-06-16T09:51:16.393Z,6020.00
2018-06-16T09:52:16.400Z,5940.00
2018-06-16T09:53:16.413Z,5860.00
2018-06-16T09:54:16.412Z,5772.00
2018-06-16T09:55:16.427Z,5708.00
2018-06-16T09:56:16.423Z,5672.00
2018-06-16T09:57:16.430Z,5612.00
2018-06-16T09:58:16.438Z,5612.00
2018-06-16T09:59:16.443Z,5508.00
2018-06-16T10:00:16.447Z,5440.00
2018-06-16T10:01:16.452Z,5380.00
2018-06-16T10:02:16.459Z,5324.00
2018-06-16T10:03:16.517Z,5300.00
2018-06-16T10:04:16.471Z,5324.00
2018-06-16T10:05:16.477Z,5420.00
2018-06-16T10:06:16.484Z,5516.00
2018-06-16T10:07:16.490Z,5868.00
2018-06-16T10:08:16.496Z,6164.00
2018-06-16T10:09:16.502Z,6524.00
2018-06-16T10:10:16.509Z,7064.00
2018-06-16T10:11:16.571Z,7792.00
2018-06-16T10:12:17.669Z,9228.00
2018-06-16T10:13:16.527Z,15080.00
2018-06-16T10:14:16.535Z,8092.00
2018-06-16T10:15:16.543Z,7988.00
2018-06-16T10:16:16.550Z,7784.00
2018-06-16T10:17:16.553Z,7760.00
2018-06-16T10:18:16.561Z,8004.00
2018-06-16T10:19:16.570Z,8744.00
2018-06-16T10:20:16.577Z,9424.00
2018-06-16T10:21:16.639Z,12160.00
2018-06-16T10:22:16.586Z,13064.00
2018-06-16T10:23:16.598Z,12000.00
2018-06-16T10:24:16.601Z,9488.00
2018-06-16T10:25:16.608Z,10944.00
2018-06-16T10:26:16.616Z,10940.00
2018-06-16T10:27:16.623Z,14636.00
2018-06-16T10:28:16.629Z,14432.00
2018-06-16T10:29:16.645Z,12264.00
2018-06-16T10:30:16.644Z,10632.00
2018-06-16T10:31:16.651Z,11536.00
2018-06-16T10:32:16.657Z,11736.00
2018-06-16T10:33:16.666Z,8940.00
2018-06-16T10:34:16.690Z,9056.00
2018-06-16T10:35:16.694Z,7920.00
2018-06-16T10:36:16.722Z,7864.00
2018-06-16T10:37:16.697Z,12496.00
2018-06-16T10:38:16.710Z,8100.00
2018-06-16T10:39:16.717Z,7812.00
2018-06-16T10:40:16.724Z,8216.00
2018-06-16T10:41:16.729Z,13948.00
2018-06-16T10:42:16.739Z,16832.00
2018-06-16T10:43:16.746Z,10444.00
2018-06-16T10:44:16.755Z,12740.00
2018-06-16T10:45:16.761Z,11060.00
2018-06-16T10:46:16.769Z,8092.00
2018-06-16T10:47:16.783Z,25696.00
2018-06-16T10:48:16.785Z,7440.00
2018-06-16T10:49:16.794Z,6208.00
2018-06-16T10:50:16.801Z,6064.00
2018-06-16T10:51:16.809Z,6272.00
2018-06-16T10:52:16.817Z,6276.00
2018-06-16T10:53:16.824Z,5848.00
2018-06-16T10:54:16.832Z,6320.00
2018-06-16T10:55:16.842Z,5880.00
2018-06-16T10:56:16.848Z,6828.00
2018-06-16T10:57:16.857Z,8568.00
2018-06-16T10:58:16.864Z,9248.00
2018-06-16T10:59:16.872Z,13328.00
2018-06-16T11:00:16.880Z,6260.00
2018-06-16T11:01:16.892Z,5996.00
2018-06-16T11:02:16.933Z,5784.00
2018-06-16T11:03:16.905Z,6188.00
2018-06-16T11:04:16.940Z,6444.00
2018-06-16T11:05:16.920Z,5984.00
2018-06-16T11:06:16.958Z,5824.00
2018-06-16T11:07:16.937Z,5652.00
2018-06-16T11:08:16.946Z,5620.00
2018-06-16T11:09:16.961Z,5820.00
2018-06-16T11:10:16.957Z,5724.00
2018-06-16T11:11:16.968Z,5776.00
2018-06-16T11:12:16.972Z,5552.00
2018-06-16T11:13:16.980Z,5336.00
2018-06-16T11:14:16.991Z,5452.00
2018-06-16T11:15:16.995Z,5868.00
2018-06-16T11:16:17.002Z,6292.00
2018-06-16T11:17:17.010Z,6624.00
2018-06-16T11:18:17.019Z,7248.00
2018-06-16T11:19:17.096Z,6916.00
2018-06-16T11:20:17.710Z,6696.00
2018-06-16T11:21:17.037Z,7392.00
2018-06-16T11:22:17.049Z,8196.00
2018-06-16T11:23:17.053Z,9232.00
2018-06-16T11:24:17.057Z,11248.00
2018-06-16T11:25:17.067Z,10472.00
2018-06-16T11:26:17.075Z,12596.00
2018-06-16T11:27:17.083Z,10392.00
2018-06-16T11:28:17.088Z,11524.00
2018-06-16T11:29:17.094Z,14976.00
2018-06-16T11:30:17.101Z,9244.00
2018-06-16T11:31:17.109Z,7436.00
2018-06-16T11:32:17.114Z,7544.00
2018-06-16T11:33:17.918Z,8000.00
2018-06-16T11:34:17.130Z,8840.00
2018-06-16T11:35:17.139Z,9624.00
2018-06-16T11:36:17.151Z,8828.00
2018-06-16T11:37:17.153Z,11708.00
2018-06-16T11:38:17.164Z,10160.00
2018-06-16T11:39:17.170Z,8488.00
2018-06-16T11:40:17.176Z,6932.00
2018-06-16T11:41:17.184Z,6552.00
2018-06-16T11:42:17.192Z,6416.00
2018-06-16T11:43:17.208Z,6528.00
2018-06-16T11:44:17.205Z,6888.00
2018-06-16T11:45:17.214Z,7896.00
2018-06-16T11:46:17.221Z,6884.00
2018-06-16T11:47:17.238Z,6536.00
2018-06-16T11:48:17.235Z,6072.00
2018-06-16T11:49:17.244Z,5824.00
2018-06-16T11:50:17.252Z,5712.00
2018-06-16T11:51:17.293Z,5688.00
2018-06-16T11:52:17.266Z,5816.00
2018-06-16T11:53:17.272Z,6016.00
2018-06-16T11:54:17.279Z,6020.00
2018-06-16T11:55:17.299Z,5892.00
2018-06-16T11:56:17.295Z,5792.00
2018-06-16T11:57:17.303Z,5888.00
2018-06-16T11:58:17.313Z,5940.00
2018-06-16T11:59:17.319Z,6456.00
2018-06-16T12:00:17.325Z,7436.00
2018-06-16T12:01:17.339Z,9536.00
2018-06-16T12:02:17.339Z,9180.00
2018-06-16T12:03:17.349Z,8924.00
2018-06-16T12:04:17.352Z,7708.00
2018-06-16T12:05:17.370Z,8316.00
2018-06-16T12:06:17.376Z,9988.00
2018-06-16T12:07:17.375Z,12340.00
2018-06-16T12:08:17.382Z,14516.00
2018-06-16T12:09:17.398Z,9860.00
2018-06-16T12:10:17.434Z,10144.00
2018-06-16T12:11:17.404Z,8444.00
2018-06-16T12:12:17.409Z,8072.00
2018-06-16T12:13:17.420Z,10236.00
2018-06-16T12:14:17.427Z,7648.00
2018-06-16T12:15:17.435Z,10608.00
2018-06-16T12:16:18.434Z,9856.00
2018-06-16T12:17:17.453Z,8400.00
2018-06-16T12:18:17.454Z,8208.00
2018-06-16T12:19:17.461Z,7600.00
2018-06-16T12:20:17.469Z,7652.00
2018-06-16T12:21:17.476Z,7340.00
2018-06-16T12:22:17.484Z,7184.00
2018-06-16T12:23:17.502Z,6824.00
2018-06-16T12:24:17.497Z,6744.00
2018-06-16T12:25:17.509Z,7096.00
2018-06-16T12:26:17.519Z,7948.00